Time;durP1;ratioP1;P1;durP2;ratioP2;P2;SDS_P1;SDS_P2;PMS_P1;PMS_P2;Temp;Humidity;BMP_temperature;BMP_pressure;BME280_temperature;BME280_humidity;BME280_pressure;Samples;Min_cycle;Max_cycle;Signal;HPM_P1;HPM_P2
2021/10/09 00:00:17;;;;;;;0.30;0.30;;;;;;;7.90;100.00;102762.41;5029288;28;20045;-79
2021/10/09 00:02:50;;;;;;;0.20;0.20;;;;;;;7.96;100.00;102760.72;5004180;28;20057;-79
2021/10/09 00:05:23;;;;;;;0.28;0.28;;;;;;;7.89;100.00;102763.44;5008693;28;20049;-79
2021/10/09 00:07:52;;;;;;;0.20;0.20;;;;;;;7.86;100.00;102768.44;5009307;28;20060;-79
2021/10/09 00:10:26;;;;;;;0.20;0.20;;;;;;;7.94;100.00;102763.66;5009226;28;20056;-79
2021/10/09 00:12:59;;;;;;;0.30;0.30;;;;;;;7.87;100.00;102768.25;5007606;28;20052;-79
2021/10/09 00:15:28;;;;;;;0.20;0.20;;;;;;;7.86;100.00;102761.16;5028608;28;20053;-81
2021/10/09 00:18:01;;;;;;;0.30;0.30;;;;;;;7.81;100.00;102753.63;5028725;28;20042;-80
2021/10/09 00:20:35;;;;;;;0.20;0.20;;;;;;;7.95;100.00;102759.88;5024986;28;20037;-80
2021/10/09 00:23:08;;;;;;;0.30;0.30;;;;;;;7.90;100.00;102758.84;4994790;28;20068;-81
2021/10/09 00:25:42;;;;;;;0.20;0.20;;;;;;;7.82;100.00;102749.06;5027757;28;20060;-80
2021/10/09 00:28:16;;;;;;;0.30;0.30;;;;;;;7.81;100.00;102759.03;5018117;28;20053;-80
2021/10/09 00:30:49;;;;;;;0.20;0.20;;;;;;;7.88;100.00;102761.75;5039522;28;20413;-80
2021/10/09 00:33:23;;;;;;;0.20;0.20;;;;;;;7.91;100.00;102764.06;5005344;28;20045;-81
2021/10/09 00:35:51;;;;;;;0.30;0.30;;;;;;;7.99;100.00;102761.09;5010010;28;20068;-80
2021/10/09 00:38:19;;;;;;;0.20;0.20;;;;;;;7.74;100.00;102747.38;5024323;28;20375;-81
2021/10/09 00:40:49;;;;;;;0.20;0.20;;;;;;;7.72;100.00;102760.31;5007242;28;20049;-79
2021/10/09 00:43:22;;;;;;;0.30;0.30;;;;;;;7.64;100.00;102757.81;5009868;28;20054;-79
2021/10/09 00:45:58;;;;;;;0.30;0.30;;;;;;;7.61;100.00;102758.22;5010091;28;20057;-79
2021/10/09 00:48:34;;;;;;;0.20;0.20;;;;;;;7.55;100.00;102757.19;5012029;28;20057;-80
2021/10/09 00:51:07;;;;;;;0.30;0.30;;;;;;;7.50;100.00;102757.00;5008494;28;20057;-80
2021/10/09 00:53:41;;;;;;;0.30;0.30;;;;;;;7.43;100.00;102756.13;5028718;28;20125;-79
2021/10/09 00:56:11;;;;;;;0.30;0.30;;;;;;;7.56;100.00;102766.16;5028320;28;20045;-80
2021/10/09 00:58:42;;;;;;;0.38;0.20;;;;;;;7.41;100.00;102756.34;5023075;28;20046;-79
2021/10/09 01:01:19;;;;;;;0.20;0.20;;;;;;;7.29;100.00;102758.00;5024178;28;20045;-81
2021/10/09 01:03:48;;;;;;;0.30;0.30;;;;;;;7.27;100.00;102754.69;5007508;28;20049;-81
2021/10/09 01:06:21;;;;;;;0.35;0.35;;;;;;;7.25;100.00;102760.31;5009656;28;20061;-81
2021/10/09 01:08:54;;;;;;;0.22;0.22;;;;;;;7.27;100.00;102760.09;5009149;28;20053;-80
2021/10/09 01:11:30;;;;;;;0.28;0.28;;;;;;;7.23;100.00;102764.25;5013388;28;20064;-81
2021/10/09 01:14:06;;;;;;;0.20;0.20;;;;;;;7.00;100.00;102753.78;5013155;28;20069;-81
2021/10/09 01:16:34;;;;;;;0.30;0.30;;;;;;;7.07;100.00;102758.19;5015808;28;20061;-81
2021/10/09 01:19:09;;;;;;;0.20;0.20;;;;;;;7.05;100.00;102770.25;5028557;28;20421;-83
2021/10/09 01:21:51;;;;;;;0.22;0.22;;;;;;;7.00;100.00;102761.91;5028134;28;20045;-82
2021/10/09 01:24:27;;;;;;;0.20;0.20;;;;;;;6.93;100.00;102762.75;5009026;28;20448;-80
2021/10/09 01:27:03;;;;;;;0.20;0.20;;;;;;;6.93;100.00;102756.47;5030057;28;20060;-80
2021/10/09 01:29:37;;;;;;;0.30;0.30;;;;;;;6.86;100.00;102756.44;5014686;28;20052;-81
2021/10/09 01:32:07;;;;;;;0.30;0.30;;;;;;;6.88;100.00;102750.88;5029099;28;20507;-80
2021/10/09 01:34:40;;;;;;;0.30;0.30;;;;;;;6.81;100.00;102753.53;5014262;28;20053;-81
2021/10/09 01:37:18;;;;;;;0.20;0.20;;;;;;;6.81;100.00;102756.25;5012933;28;20057;-81
2021/10/09 01:39:48;;;;;;;0.22;0.22;;;;;;;6.80;100.00;102752.69;5015096;28;20049;-82
2021/10/09 01:42:29;;;;;;;0.40;0.25;;;;;;;6.77;100.00;102755.00;5010747;28;20057;-81
2021/10/09 01:45:03;;;;;;;0.20;0.20;;;;;;;6.73;100.00;102751.84;5028253;28;20060;-81
2021/10/09 01:47:31;;;;;;;0.30;0.30;;;;;;;6.67;100.00;102759.94;5008491;28;20049;-82
2021/10/09 01:50:05;;;;;;;0.20;0.20;;;;;;;6.61;100.00;102743.47;5014358;28;20575;-81
2021/10/09 01:52:36;;;;;;;0.30;0.30;;;;;;;6.56;100.00;102747.81;5027617;28;20056;-83
2021/10/09 01:55:12;;;;;;;0.20;0.20;;;;;;;6.45;100.00;102739.25;5014203;28;20498;-82
2021/10/09 01:57:42;;;;;;;0.30;0.30;;;;;;;6.48;100.00;102748.84;5011033;28;20045;-80
2021/10/09 02:00:15;;;;;;;0.20;0.20;;;;;;;6.50;100.00;102744.03;5014277;28;20056;-82
2021/10/09 02:02:56;;;;;;;0.20;0.20;;;;;;;6.42;100.00;102736.94;5032205;28;20064;-81
2021/10/09 02:05:30;;;;;;;0.25;0.25;;;;;;;6.40;100.00;102747.13;5012546;28;20421;-81
2021/10/09 02:08:01;;;;;;;0.17;0.17;;;;;;;6.37;100.00;102744.00;5029718;28;20045;-83
2021/10/09 02:10:43;;;;;;;0.20;0.20;;;;;;;6.34;100.00;102747.94;5014248;28;20381;-82
2021/10/09 02:13:20;;;;;;;0.20;0.20;;;;;;;6.39;100.00;102748.16;5014216;28;20056;-82
2021/10/09 02:15:58;;;;;;;0.20;0.20;;;;;;;6.23;100.00;102737.69;5029798;28;20065;-83
2021/10/09 02:18:47;;;;;;;0.20;0.20;;;;;;;6.30;100.00;102742.09;5013486;28;20053;-82
2021/10/09 02:24:30;;;;;;;0.20;0.20;;;;;;;6.24;100.00;102747.47;4991842;28;20058;-85
2021/10/09 02:26:58;;;;;;;0.20;0.20;;;;;;;6.24;100.00;102732.09;5003596;28;20053;-82
2021/10/09 02:29:27;;;;;;;0.28;0.28;;;;;;;6.23;100.00;102738.53;5013083;28;20049;-82
2021/10/09 02:31:57;;;;;;;0.30;0.30;;;;;;;6.15;100.00;102744.09;5012283;28;20385;-81
2021/10/09 02:34:26;;;;;;;0.22;0.22;;;;;;;6.01;100.00;102739.63;5029715;28;20049;-83
2021/10/09 02:36:54;;;;;;;0.10;0.10;;;;;;;5.98;100.00;102731.91;5011578;28;20049;-82
2021/10/09 02:39:29;;;;;;;0.40;0.20;;;;;;;5.96;100.00;102738.31;5025245;28;20064;-81
2021/10/09 02:42:06;;;;;;;0.20;0.20;;;;;;;5.93;100.00;102735.19;5025069;28;20050;-82
2021/10/09 02:44:34;;;;;;;0.20;0.20;;;;;;;5.87;100.00;102736.81;5011856;28;20410;-81
2021/10/09 02:47:08;;;;;;;0.20;0.20;;;;;;;5.86;100.00;102737.03;5011054;28;20056;-81
2021/10/09 02:49:39;;;;;;;0.20;0.20;;;;;;;5.79;100.00;102734.28;5015698;28;20045;-81
2021/10/09 02:52:07;;;;;;;0.20;0.20;;;;;;;5.76;100.00;102746.31;5010415;28;20054;-81
2021/10/09 02:54:38;;;;;;;0.20;0.20;;;;;;;5.74;100.00;102739.41;5025230;28;20049;-80
2021/10/09 02:57:12;;;;;;;0.20;0.20;;;;;;;5.72;100.00;102742.31;5010594;28;20049;-80
2021/10/09 02:59:45;;;;;;;0.20;0.20;;;;;;;5.70;100.00;102743.53;5011242;28;20060;-81
2021/10/09 03:02:19;;;;;;;0.20;0.20;;;;;;;5.65;100.00;102740.59;5009920;28;20076;-81
2021/10/09 03:04:53;;;;;;;0.20;0.20;;;;;;;5.65;100.00;102748.69;5010950;28;20056;-80
2021/10/09 03:07:26;;;;;;;0.20;0.20;;;;;;;5.65;100.00;102744.16;5009123;28;20065;-81
2021/10/09 03:10:01;;;;;;;0.43;0.20;;;;;;;5.62;100.00;102739.09;5011051;28;20046;-81
2021/10/09 03:12:34;;;;;;;0.20;0.20;;;;;;;5.60;100.00;102744.72;5009499;28;20054;-81
2021/10/09 03:15:09;;;;;;;0.15;0.15;;;;;;;5.59;100.00;102745.75;5010233;28;20041;-81
2021/10/09 03:17:42;;;;;;;0.30;0.30;;;;;;;5.56;100.00;102746.13;5028240;28;20061;-80
2021/10/09 03:20:12;;;;;;;0.20;0.20;;;;;;;5.58;100.00;102741.38;5028039;28;20053;-80
2021/10/09 03:22:47;;;;;;;0.30;0.20;;;;;;;5.58;100.00;102744.09;5009929;28;20053;-81
2021/10/09 03:25:22;;;;;;;0.20;0.20;;;;;;;5.55;100.00;102749.03;5012232;28;20485;-82
2021/10/09 03:27:57;;;;;;;0.25;0.25;;;;;;;5.53;100.00;102746.53;5008577;28;20049;-80
2021/10/09 03:30:28;;;;;;;0.20;0.20;;;;;;;5.55;100.00;102752.59;5011772;28;20046;-80
2021/10/09 03:33:01;;;;;;;0.20;0.20;;;;;;;5.55;100.00;102743.63;5008252;28;20061;-81
2021/10/09 03:35:35;;;;;;;0.20;0.20;;;;;;;5.46;100.00;102737.53;5028126;28;20045;-81
2021/10/09 03:38:08;;;;;;;0.20;0.20;;;;;;;5.47;100.00;102738.38;5023028;28;20512;-80
2021/10/09 03:40:46;;;;;;;0.28;0.28;;;;;;;5.41;100.00;102745.38;5012327;28;20045;-80
2021/10/09 03:43:17;;;;;;;0.20;0.20;;;;;;;5.37;100.00;102744.97;5007767;28;20045;-81
2021/10/09 03:45:56;;;;;;;0.22;0.22;;;;;;;5.30;100.00;102757.53;5010587;28;20049;-80
2021/10/09 03:48:40;;;;;;;0.20;0.20;;;;;;;5.25;100.00;102750.03;5011404;28;20049;-81
2021/10/09 03:53:59;;;;;;;0.20;0.20;;;;;;;5.22;100.00;102754.97;5026975;28;20041;-80
2021/10/09 03:56:28;;;;;;;0.20;0.20;;;;;;;5.19;100.00;102750.81;5021728;28;20046;-80
2021/10/09 03:59:04;;;;;;;0.20;0.20;;;;;;;5.16;100.00;102755.75;5007385;28;20072;-81
2021/10/09 04:01:33;;;;;;;0.20;0.20;;;;;;;5.22;100.00;102750.41;5009524;28;20524;-81
2021/10/09 04:04:07;;;;;;;0.20;0.20;;;;;;;5.20;100.00;102752.47;5008757;28;20049;-80
2021/10/09 04:06:37;;;;;;;0.10;0.10;;;;;;;5.19;100.00;102747.25;5024022;28;20045;-80
2021/10/09 04:09:12;;;;;;;0.20;0.20;;;;;;;5.23;100.00;102744.00;5029990;28;20045;-80
2021/10/09 04:11:47;;;;;;;0.20;0.20;;;;;;;5.30;100.00;102749.44;5017205;28;20046;-81
2021/10/09 04:14:20;;;;;;;0.30;0.30;;;;;;;5.27;100.00;102752.53;5009744;28;20053;-80
2021/10/09 04:16:54;;;;;;;0.20;0.20;;;;;;;5.14;100.00;102747.00;5010527;28;20060;-80
2021/10/09 04:19:27;;;;;;;0.20;0.20;;;;;;;5.09;100.00;102740.31;5011237;28;20053;-79
2021/10/09 04:22:01;;;;;;;0.20;0.20;;;;;;;5.02;100.00;102744.81;5024479;28;20493;-80
2021/10/09 04:24:35;;;;;;;0.30;0.30;;;;;;;5.06;100.00;102748.78;5010353;28;20049;-80
2021/10/09 04:27:10;;;;;;;0.20;0.20;;;;;;;5.01;100.00;102745.81;5025234;28;20053;-81
2021/10/09 04:29:39;;;;;;;0.20;0.20;;;;;;;4.98;100.00;102748.91;5027219;28;20064;-80
2021/10/09 04:32:12;;;;;;;0.30;0.30;;;;;;;5.00;100.00;102746.88;5021004;28;20045;-80
2021/10/09 04:34:45;;;;;;;0.30;0.30;;;;;;;5.01;100.00;102751.22;5009740;28;20050;-81
2021/10/09 04:37:19;;;;;;;0.20;0.20;;;;;;;4.99;100.00;102753.28;5009149;28;20049;-81
2021/10/09 04:39:52;;;;;;;0.20;0.20;;;;;;;5.03;100.00;102749.19;5026024;28;20509;-80
2021/10/09 04:42:27;;;;;;;0.30;0.30;;;;;;;5.00;100.00;102757.66;5008842;28;20045;-80
2021/10/09 04:45:01;;;;;;;0.20;0.20;;;;;;;4.97;100.00;102759.91;5027602;28;20053;-80
2021/10/09 04:47:37;;;;;;;0.20;0.20;;;;;;;4.97;100.00;102762.59;5021268;28;20176;-80
2021/10/09 04:50:07;;;;;;;0.20;0.20;;;;;;;4.92;100.00;102769.41;5007873;28;20053;-80
2021/10/09 04:52:42;;;;;;;0.20;0.20;;;;;;;4.96;100.00;102771.72;5010466;28;20061;-81
2021/10/09 04:55:15;;;;;;;0.15;0.15;;;;;;;4.87;100.00;102762.91;5022789;28;20054;-82
2021/10/09 04:57:50;;;;;;;0.20;0.20;;;;;;;4.85;100.00;102765.81;5027964;28;20044;-81
2021/10/09 05:00:19;;;;;;;0.17;0.17;;;;;;;4.74;100.00;102759.03;5008013;28;20502;-81
2021/10/09 05:02:53;;;;;;;0.17;0.13;;;;;;;4.70;100.00;102763.13;5009211;28;20056;-81
2021/10/09 05:05:30;;;;;;;0.25;0.25;;;;;;;4.72;100.00;102752.16;5007139;28;20056;-81
2021/10/09 05:07:59;;;;;;;0.30;0.30;;;;;;;4.69;100.00;102757.94;5025993;28;20049;-81
2021/10/09 05:10:32;;;;;;;0.17;0.17;;;;;;;4.65;100.00;102752.06;5022389;28;20049;-81
2021/10/09 05:13:02;;;;;;;0.20;0.20;;;;;;;4.64;100.00;102763.03;5012049;28;20041;-82
2021/10/09 05:15:40;;;;;;;0.20;0.20;;;;;;;4.59;100.00;102759.06;5024787;28;20061;-81
2021/10/09 05:18:20;;;;;;;0.20;0.20;;;;;;;4.65;100.00;102762.03;5020304;28;20076;-82
2021/10/09 05:20:54;;;;;;;0.20;0.20;;;;;;;4.66;100.00;102759.13;5010471;28;20084;-81
2021/10/09 05:23:30;;;;;;;0.20;0.20;;;;;;;4.66;100.00;102763.72;5021677;28;20030;-81
2021/10/09 05:26:04;;;;;;;0.20;0.20;;;;;;;4.69;100.00;102774.13;5008585;28;20080;-81
2021/10/09 05:28:42;;;;;;;0.28;0.28;;;;;;;4.67;100.00;102774.31;5009054;28;20058;-81
2021/10/09 05:31:24;;;;;;;0.25;0.25;;;;;;;4.68;100.00;102776.00;5024782;28;20046;-81
2021/10/09 05:33:54;;;;;;;0.30;0.30;;;;;;;4.66;100.00;102778.03;5024409;28;20046;-81
2021/10/09 05:36:25;;;;;;;0.20;0.20;;;;;;;4.65;100.00;102784.44;5012470;28;20699;-82
2021/10/09 05:38:59;;;;;;;0.20;0.20;;;;;;;4.63;100.00;102781.09;5020532;28;20064;-81
2021/10/09 05:41:34;;;;;;;0.40;0.30;;;;;;;4.68;100.00;102783.22;5026276;28;20056;-82
2021/10/09 05:44:09;;;;;;;0.20;0.20;;;;;;;4.66;100.00;102782.59;5010617;28;20397;-81
2021/10/09 05:46:43;;;;;;;0.22;0.22;;;;;;;4.60;100.00;102782.31;5011168;28;20132;-81
2021/10/09 05:49:19;;;;;;;0.28;0.28;;;;;;;4.58;100.00;102780.81;5007535;28;20046;-82
2021/10/09 05:51:58;;;;;;;0.43;0.30;;;;;;;4.58;100.00;102778.13;5022369;28;20409;-82
2021/10/09 05:54:36;;;;;;;0.20;0.20;;;;;;;4.61;100.00;102777.75;5010790;28;20053;-81
2021/10/09 05:57:13;;;;;;;0.30;0.30;;;;;;;4.64;100.00;102776.53;5026906;28;20049;-81
2021/10/09 06:25:51;;;;;;;0.20;0.20;;;;;;;4.64;100.00;102808.91;5027238;28;20057;-80
2021/10/09 06:46:20;;;;;;;0.30;0.30;;;;;;;5.07;100.00;102815.25;5031037;28;20413;-79
2021/10/09 06:49:13;;;;;;;0.20;0.20;;;;;;;5.07;100.00;102809.84;5011137;28;20065;-81
2021/10/09 07:00:15;;;;;;;0.30;0.30;;;;;;;5.26;100.00;102821.91;5011434;28;20525;-80
2021/10/09 07:02:51;;;;;;;0.20;0.20;;;;;;;5.26;100.00;102824.59;5011843;28;20050;-80
2021/10/09 07:05:25;;;;;;;0.20;0.20;;;;;;;5.46;100.00;102823.97;5012642;28;20054;-80
2021/10/09 07:08:19;;;;;;;0.30;0.30;;;;;;;5.45;100.00;102831.25;5012427;28;20041;-81
2021/10/09 07:11:01;;;;;;;0.30;0.30;;;;;;;5.46;100.00;102832.06;5013250;28;20045;-81
2021/10/09 07:13:30;;;;;;;0.20;0.20;;;;;;;5.56;100.00;102834.44;5012860;28;20378;-80
2021/10/09 07:16:04;;;;;;;0.20;0.20;;;;;;;5.71;100.00;102837.06;5026979;28;20042;-79
2021/10/09 07:18:37;;;;;;;0.20;0.20;;;;;;;5.67;100.00;102842.03;5023458;28;20056;-80
2021/10/09 07:21:06;;;;;;;0.30;0.30;;;;;;;5.71;100.00;102851.41;5029388;28;20037;-81
2021/10/09 07:23:44;;;;;;;0.20;0.20;;;;;;;5.70;100.00;102846.19;5011632;28;20042;-80
2021/10/09 07:26:17;;;;;;;0.20;0.20;;;;;;;5.72;100.00;102839.56;5033364;28;20516;-79
2021/10/09 07:28:46;;;;;;;0.30;0.30;;;;;;;5.73;100.00;102849.38;5027295;28;20046;-79
2021/10/09 07:31:19;;;;;;;0.22;0.22;;;;;;;5.98;100.00;102842.72;5012801;28;20056;-79
2021/10/09 07:33:52;;;;;;;0.20;0.20;;;;;;;6.13;100.00;102838.91;5029950;28;20052;-81
2021/10/09 07:36:25;;;;;;;0.20;0.20;;;;;;;6.06;100.00;102838.03;5027568;28;20049;-78
2021/10/09 07:39:00;;;;;;;0.30;0.30;;;;;;;6.23;100.00;102835.03;5021390;28;20053;-80
2021/10/09 07:41:34;;;;;;;0.45;0.20;;;;;;;6.32;100.00;102838.41;5018589;28;20042;-78
2021/10/09 07:44:02;;;;;;;0.20;0.20;;;;;;;6.32;100.00;102843.81;5027763;28;20072;-81
2021/10/09 07:46:35;;;;;;;0.20;0.20;;;;;;;6.23;100.00;102848.56;5018862;28;20056;-81
2021/10/09 07:49:11;;;;;;;0.30;0.30;;;;;;;6.38;100.00;102845.72;5007616;28;20057;-82
2021/10/09 07:51:44;;;;;;;0.20;0.20;;;;;;;6.41;100.00;102832.66;4993480;28;20512;-80
2021/10/09 07:54:14;;;;;;;0.20;0.20;;;;;;;6.46;100.00;102840.16;5018265;28;20061;-81
2021/10/09 07:56:47;;;;;;;0.20;0.20;;;;;;;6.41;100.00;102843.47;4997570;28;20057;-80
2021/10/09 07:59:15;;;;;;;0.30;0.30;;;;;;;6.28;100.00;102846.94;5011163;28;20063;-81
2021/10/09 08:01:48;;;;;;;0.20;0.20;;;;;;;6.63;100.00;102846.09;4997589;28;20050;-79
2021/10/09 08:04:17;;;;;;;0.20;0.20;;;;;;;6.61;100.00;102835.44;5016273;28;20497;-80
2021/10/09 08:06:50;;;;;;;0.30;0.20;;;;;;;6.67;100.00;102835.69;5016279;28;20053;-81
2021/10/09 08:09:19;;;;;;;0.20;0.20;;;;;;;6.63;100.00;102836.09;4998477;28;20321;-79
2021/10/09 08:11:47;;;;;;;0.28;0.28;;;;;;;6.58;100.00;102843.16;5011122;28;20053;-82
2021/10/09 08:14:21;;;;;;;0.22;0.20;;;;;;;6.75;100.00;102833.66;4996516;28;20076;-81
2021/10/09 08:16:54;;;;;;;0.20;0.20;;;;;;;6.76;100.00;102837.19;5014522;28;20057;-82
2021/10/09 08:19:27;;;;;;;0.25;0.25;;;;;;;6.69;100.00;102839.88;5013040;28;20053;-81
2021/10/09 08:22:03;;;;;;;0.30;0.30;;;;;;;6.78;100.00;102830.56;5010130;28;20061;-82
2021/10/09 08:24:42;;;;;;;0.20;0.20;;;;;;;6.77;100.00;102837.00;4994601;28;20049;-79
2021/10/09 08:27:25;;;;;;;0.25;0.25;;;;;;;7.06;100.00;102820.66;5015724;28;20622;-81
2021/10/09 08:36:02;;;;;;;0.30;0.30;;;;;;;7.30;100.00;102833.63;4956832;28;20061;-81
2021/10/09 08:41:25;;;;;;;0.30;0.30;;;;;;;7.65;100.00;102827.22;5007655;28;20092;-81
2021/10/09 08:43:59;;;;;;;0.30;0.30;;;;;;;7.71;100.00;102829.13;5016577;28;20800;-82
2021/10/09 08:46:27;;;;;;;0.20;0.20;;;;;;;7.54;100.00;102828.69;4993413;28;20413;-82
2021/10/09 08:48:57;;;;;;;0.20;0.20;;;;;;;7.70;100.00;102827.44;5010648;28;20639;-80
2021/10/09 08:51:30;;;;;;;0.20;0.20;;;;;;;7.80;100.00;102827.88;5010112;28;20052;-79
2021/10/09 08:54:08;;;;;;;0.30;0.20;;;;;;;7.92;100.00;102833.50;5010271;28;20049;-80
2021/10/09 08:56:47;;;;;;;0.20;0.20;;;;;;;7.72;100.00;102828.09;5010511;28;20064;-80
2021/10/09 08:59:23;;;;;;;0.25;0.25;;;;;;;7.95;100.00;102827.66;5012237;28;20623;-80
2021/10/09 09:02:07;;;;;;;0.20;0.20;;;;;;;8.06;100.00;102822.66;5011397;28;20050;-81
2021/10/09 09:04:46;;;;;;;0.32;0.30;;;;;;;8.28;100.00;102820.53;4993892;28;20053;-82
2021/10/09 09:27:42;;;;;;;0.20;0.20;;;;;;;9.14;89.02;102805.84;5010171;28;20061;-80
2021/10/09 09:36:21;;;;;;;0.20;0.20;;;;;;;9.04;96.17;102800.03;5009853;28;20060;-82
2021/10/09 09:39:06;;;;;;;0.25;0.25;;;;;;;8.78;99.68;102790.13;5026414;28;20054;-79
2021/10/09 09:41:45;;;;;;;0.20;0.20;;;;;;;8.75;98.87;102790.56;5009277;28;20053;-80
2021/10/09 09:44:21;;;;;;;0.20;0.20;;;;;;;8.73;100.00;102793.50;5026113;28;20502;-82
2021/10/09 09:47:04;;;;;;;0.20;0.20;;;;;;;8.74;100.00;102791.59;5022582;28;20053;-80
2021/10/09 09:49:37;;;;;;;0.20;0.20;;;;;;;9.09;95.41;102783.09;5022263;28;20509;-81
2021/10/09 09:52:11;;;;;;;0.20;0.20;;;;;;;8.97;96.50;102791.09;5011091;28;20050;-78
2021/10/09 09:54:44;;;;;;;0.20;0.20;;;;;;;9.06;95.13;102781.66;5025220;28;20048;-79
2021/10/09 09:57:19;;;;;;;0.25;0.25;;;;;;;9.06;97.12;102789.78;5024445;28;20057;-79
2021/10/09 09:59:55;;;;;;;0.30;0.30;;;;;;;9.14;96.35;102775.97;5007504;28;20064;-79
2021/10/09 10:02:44;;;;;;;0.20;0.20;;;;;;;9.62;82.17;102771.00;5032918;28;20052;-77
2021/10/09 10:05:13;;;;;;;0.20;0.20;;;;;;;9.47;92.74;102785.78;5023797;28;21663;-80
2021/10/09 10:07:47;;;;;;;0.10;0.10;;;;;;;9.38;92.75;102783.50;5021129;28;20053;-79
2021/10/09 10:10:16;;;;;;;0.20;0.20;;;;;;;9.36;88.69;102783.72;5023723;28;20785;-80
2021/10/09 10:12:47;;;;;;;0.20;0.20;;;;;;;9.50;86.13;102787.19;5027210;28;20048;-79
2021/10/09 10:15:20;;;;;;;0.20;0.20;;;;;;;9.75;82.00;102770.91;5012104;28;20037;-80
2021/10/09 10:17:50;;;;;;;0.20;0.20;;;;;;;9.81;78.01;102777.34;5029805;28;20042;-78
2021/10/09 10:20:45;;;;;;;0.30;0.30;;;;;;;10.11;74.52;102766.56;5012510;28;20053;-79
2021/10/09 10:23:32;;;;;;;0.20;0.20;;;;;;;9.97;82.53;102774.03;5008826;28;20050;-80
2021/10/09 10:26:26;;;;;;;;;;;;;;;9.93;82.44;102774.69;5026521;28;20049;-79
2021/10/09 10:29:22;;;;;;;0.20;0.20;;;;;;;10.21;75.52;102772.31;5025995;28;19964;-80
2021/10/09 10:32:24;;;;;;;0.20;0.20;;;;;;;10.35;76.52;102767.59;5007651;28;20045;-79
2021/10/09 10:35:48;;;;;;;0.20;0.20;;;;;;;10.23;75.63;102768.53;4944770;28;20051;-79
2021/10/09 10:38:46;;;;;;;0.30;0.30;;;;;;;10.32;73.37;102770.72;4889799;29;20058;-80
2021/10/09 10:41:39;;;;;;;0.30;0.30;;;;;;;10.23;75.81;102758.47;5006541;28;20054;-78
2021/10/09 10:44:46;;;;;;;0.20;0.20;;;;;;;10.65;69.00;102764.09;5026735;28;20049;-78
2021/10/09 10:47:38;;;;;;;0.27;0.27;;;;;;;10.42;76.70;102756.63;5008530;28;20052;-81
2021/10/09 10:50:18;;;;;;;0.10;0.10;;;;;;;10.69;70.57;102759.03;5025273;28;20056;-80
2021/10/09 10:52:55;;;;;;;0.20;0.20;;;;;;;10.60;72.71;102763.13;5007204;28;20065;-81
2021/10/09 10:56:05;;;;;;;0.20;0.20;;;;;;;10.76;74.68;102761.66;5024563;28;20045;-79
2021/10/09 10:58:39;;;;;;;0.20;0.20;;;;;;;10.75;73.64;102754.56;5026022;28;20053;-78
2021/10/09 11:01:16;;;;;;;0.20;0.20;;;;;;;10.66;78.00;102759.47;5024845;28;20051;-80
2021/10/09 11:03:51;;;;;;;0.30;0.30;;;;;;;10.74;74.99;102761.06;5030043;28;20045;-80
2021/10/09 11:06:27;;;;;;;0.20;0.20;;;;;;;10.54;77.31;102749.34;5030619;28;20057;-79
2021/10/09 11:09:00;;;;;;;0.47;0.30;;;;;;;10.64;80.18;102761.59;5031292;28;20057;-79
2021/10/09 11:11:42;;;;;;;0.20;0.20;;;;;;;10.70;72.58;102764.25;5022785;28;20475;-79
2021/10/09 11:14:20;;;;;;;0.20;0.20;;;;;;;10.71;75.99;102754.16;5021840;28;20056;-75
2021/10/09 11:17:01;;;;;;;0.20;0.20;;;;;;;10.78;73.83;102743.19;5029557;28;20041;-78
2021/10/09 11:19:45;;;;;;;0.25;0.25;;;;;;;10.76;67.29;102742.56;5021834;28;20041;-82
2021/10/09 11:22:21;;;;;;;0.45;0.30;;;;;;;10.97;67.20;102747.53;5024189;28;20412;-78
2021/10/09 11:24:51;;;;;;;0.17;0.17;;;;;;;11.04;68.31;102745.53;5026004;28;20056;-80
2021/10/09 11:27:34;;;;;;;0.22;0.22;;;;;;;10.92;71.05;102741.13;5020035;28;20073;-80
2021/10/09 11:30:10;;;;;;;0.30;0.30;;;;;;;10.95;73.10;102729.75;5017959;28;20058;-78
2021/10/09 11:32:40;;;;;;;0.20;0.20;;;;;;;11.24;66.46;102736.22;5010213;28;20053;-80
2021/10/09 11:35:15;;;;;;;0.10;0.10;;;;;;;11.25;66.80;102743.34;5022956;28;20030;-80
2021/10/09 11:37:50;;;;;;;0.20;0.20;;;;;;;11.34;61.55;102732.94;5025642;28;20053;-79
2021/10/09 11:40:33;;;;;;;0.22;0.22;;;;;;;11.26;64.80;102734.09;5017283;28;20378;-82
2021/10/09 11:43:28;;;;;;;0.30;0.30;;;;;;;11.16;70.97;102731.13;5017207;28;20068;-80
2021/10/09 11:46:04;;;;;;;0.20;0.20;;;;;;;11.39;63.20;102733.91;5020270;28;20685;-79
2021/10/09 11:54:32;;;;;;;0.20;0.20;;;;;;;10.97;74.04;102731.19;5022871;28;20045;-79
2021/10/09 11:57:06;;;;;;;0.20;0.20;;;;;;;10.91;76.17;102732.13;5004349;28;20484;-79
2021/10/09 11:59:41;;;;;;;0.30;0.30;;;;;;;10.86;72.49;102724.63;5004645;28;20060;-79
2021/10/09 12:02:34;;;;;;;0.20;0.20;;;;;;;10.87;74.70;102729.03;5023877;28;20484;-79
2021/10/09 12:05:12;;;;;;;0.20;0.20;;;;;;;10.85;72.79;102728.44;5022817;28;20055;-79
2021/10/09 12:07:40;;;;;;;0.20;0.20;;;;;;;11.28;64.89;102721.06;5023077;28;20395;-80
2021/10/09 12:10:16;;;;;;;0.20;0.20;;;;;;;11.12;70.94;102714.41;5024655;28;20045;-78
2021/10/09 12:12:47;;;;;;;0.25;0.25;;;;;;;11.25;73.54;102718.00;5019528;28;20422;-80
2021/10/09 12:15:25;;;;;;;0.20;0.20;;;;;;;11.10;67.79;102718.44;5019626;28;20049;-79
2021/10/09 12:18:00;;;;;;;0.20;0.20;;;;;;;10.97;69.95;102712.13;5022220;28;20041;-81
2021/10/09 12:20:33;;;;;;;0.20;0.20;;;;;;;11.02;70.20;102711.41;5005254;28;20045;-80
2021/10/09 12:23:06;;;;;;;0.20;0.20;;;;;;;11.35;69.18;102707.31;5023525;28;20049;-79
2021/10/09 12:25:41;;;;;;;0.30;0.20;;;;;;;11.38;66.34;102709.59;5020000;28;20414;-80
2021/10/09 12:28:15;;;;;;;0.30;0.30;;;;;;;11.76;58.61;102705.56;5006866;28;20064;-81
2021/10/09 12:30:50;;;;;;;0.20;0.20;;;;;;;11.74;59.93;102705.81;5022532;28;20061;-80
2021/10/09 12:33:34;;;;;;;0.20;0.20;;;;;;;11.82;57.61;102701.06;5019946;28;20037;-79
2021/10/09 12:36:29;;;;;;;0.20;0.20;;;;;;;11.97;56.33;102697.88;5021044;28;20057;-79
2021/10/09 12:39:21;;;;;;;0.30;0.30;;;;;;;11.86;60.13;102696.78;5022325;28;20054;-79
2021/10/09 12:41:51;;;;;;;0.30;0.30;;;;;;;11.83;60.50;102695.34;5007451;28;20049;-80
2021/10/09 12:44:24;;;;;;;0.20;0.20;;;;;;;11.81;61.80;102680.31;5023720;28;20045;-80
2021/10/09 12:46:53;;;;;;;0.20;0.20;;;;;;;12.26;54.08;102682.38;5026547;28;20064;-79
2021/10/09 12:49:22;;;;;;;0.20;0.20;;;;;;;12.26;53.36;102668.72;5024281;28;20072;-80
2021/10/09 12:51:55;;;;;;;0.38;0.30;;;;;;;12.23;52.92;102670.03;5022980;28;20038;-79
2021/10/09 12:54:31;;;;;;;0.20;0.20;;;;;;;11.89;61.81;102667.13;5018391;28;20045;-79
2021/10/09 12:57:08;;;;;;;0.30;0.30;;;;;;;11.63;64.33;102668.47;5013658;28;20060;-80
2021/10/09 12:59:37;;;;;;;0.20;0.20;;;;;;;11.60;63.82;102663.50;5009422;28;20050;-79
2021/10/09 13:02:11;;;;;;;0.55;0.20;;;;;;;11.51;65.47;102662.19;5007397;28;20068;-80
2021/10/09 13:04:44;;;;;;;0.20;0.20;;;;;;;11.88;62.11;102651.81;5021579;28;20057;-79
2021/10/09 13:07:18;;;;;;;0.20;0.20;;;;;;;11.66;63.61;102661.72;5025281;28;20045;-79
2021/10/09 13:09:46;;;;;;;0.20;0.20;;;;;;;11.62;66.48;102666.78;5022009;28;20501;-77
2021/10/09 13:12:15;;;;;;;0.20;0.20;;;;;;;12.03;56.79;102653.25;5009689;28;20060;-79
2021/10/09 13:14:49;;;;;;;0.20;0.20;;;;;;;12.15;54.98;102659.53;5025464;28;20053;-77
2021/10/09 13:17:23;;;;;;;0.20;0.20;;;;;;;12.22;56.61;102652.00;5008333;28;20053;-79
2021/10/09 13:19:56;;;;;;;0.20;0.20;;;;;;;12.18;57.78;102652.72;5025494;28;20045;-77
2021/10/09 13:22:25;;;;;;;0.20;0.20;;;;;;;12.37;56.16;102651.50;5024658;28;20502;-78
2021/10/09 13:24:53;;;;;;;0.20;0.20;;;;;;;12.20;58.76;102643.22;5024522;28;20053;-79
2021/10/09 13:27:26;;;;;;;0.20;0.20;;;;;;;12.20;55.99;102632.31;5009928;28;20060;-79
2021/10/09 13:30:00;;;;;;;0.20;0.20;;;;;;;12.30;54.42;102645.31;5004935;28;20100;-75
2021/10/09 13:32:34;;;;;;;0.20;0.20;;;;;;;12.42;52.36;102637.91;5020645;28;20553;-79
2021/10/09 13:35:08;;;;;;;0.22;0.22;;;;;;;12.25;55.81;102637.88;5026270;28;20449;-79
2021/10/09 13:37:47;;;;;;;0.20;0.20;;;;;;;12.00;60.33;102640.06;5021494;28;20046;-80
2021/10/09 13:40:21;;;;;;;0.20;0.20;;;;;;;12.16;55.84;102631.13;5016759;28;20053;-80
2021/10/09 13:42:49;;;;;;;0.20;0.20;;;;;;;12.12;51.86;102634.59;5013162;28;20053;-79